Time;durP1;ratioP1;P1;durP2;ratioP2;P2;SDS_P1;SDS_P2;PMS_P1;PMS_P2;Temp;Humidity;BMP_temperature;BMP_pressure;BME280_temperature;BME280_humidity;BME280_pressure;Samples;Min_cycle;Max_cycle;Signal;HPM_P1;HPM_P2
2023/05/17 00:02:00;;;;;;;15.60;4.30;;;9.40;99.90;;;;;;5067274;28;20055;-56
2023/05/17 00:04:29;;;;;;;13.18;4.15;;;9.40;99.90;;;;;;5067231;28;20052;-57
2023/05/17 00:06:57;;;;;;;11.73;4.30;;;9.40;99.90;;;;;;5049966;28;20876;-57
2023/05/17 00:09:24;;;;;;;9.98;3.90;;;9.40;99.90;;;;;;5083854;28;20056;-58
2023/05/17 00:11:52;;;;;;;16.85;5.28;;;9.40;99.90;;;;;;5064536;28;20041;-58
2023/05/17 00:14:20;;;;;;;15.32;3.80;;;9.40;99.90;;;;;;5054800;28;20056;-57
2023/05/17 00:16:49;;;;;;;13.32;5.47;;;9.30;99.90;;;;;;5070143;28;20052;-57
2023/05/17 00:19:17;;;;;;;15.70;4.82;;;9.30;99.90;;;;;;5066476;28;20055;-56
2023/05/17 00:21:45;;;;;;;15.68;4.38;;;9.30;99.90;;;;;;5067336;28;20056;-59
2023/05/17 00:24:13;;;;;;;20.88;4.75;;;9.30;99.90;;;;;;5066826;28;20062;-57
2023/05/17 00:26:40;;;;;;;19.67;4.57;;;9.20;99.90;;;;;;5052121;28;20427;-56
2023/05/17 00:29:08;;;;;;;18.20;4.53;;;9.20;99.90;;;;;;5066468;28;20487;-56
2023/05/17 00:31:36;;;;;;;15.15;4.25;;;9.20;99.90;;;;;;5067003;28;20052;-57
2023/05/17 00:34:07;;;;;;;11.82;4.47;;;9.20;99.90;;;;;;5068437;28;20404;-58
2023/05/17 00:36:35;;;;;;;17.05;4.15;;;9.20;99.90;;;;;;5070650;28;20055;-59
2023/05/17 00:39:02;;;;;;;12.60;3.97;;;9.30;99.90;;;;;;5067609;28;20067;-57
2023/05/17 00:41:31;;;;;;;14.45;4.35;;;9.30;99.90;;;;;;5068756;28;20041;-54
2023/05/17 00:43:59;;;;;;;13.07;4.25;;;9.30;99.90;;;;;;5071152;28;20048;-57
2023/05/17 00:46:27;;;;;;;13.77;4.63;;;9.30;99.90;;;;;;5071391;28;20040;-57
2023/05/17 00:48:55;;;;;;;19.77;3.88;;;9.20;99.90;;;;;;5070947;28;20372;-57
2023/05/17 00:51:23;;;;;;;10.40;4.35;;;9.20;99.90;;;;;;5070314;28;20368;-56
2023/05/17 00:53:51;;;;;;;11.82;3.85;;;9.20;99.90;;;;;;5073677;28;20470;-56
2023/05/17 00:56:20;;;;;;;12.00;3.70;;;9.20;99.90;;;;;;5077023;28;20053;-58
2023/05/17 00:58:51;;;;;;;11.18;4.20;;;9.10;99.90;;;;;;5077534;28;20047;-58
2023/05/17 01:01:20;;;;;;;13.02;4.30;;;9.10;99.90;;;;;;5063687;28;20048;-57
2023/05/17 01:03:50;;;;;;;10.60;4.53;;;9.10;99.90;;;;;;5067045;28;20055;-57
2023/05/17 01:06:18;;;;;;;17.92;5.03;;;9.00;99.90;;;;;;5066674;28;20123;-57
2023/05/17 01:08:46;;;;;;;16.77;5.38;;;9.00;99.90;;;;;;5069400;28;20055;-57
2023/05/17 01:11:26;;;;;;;13.82;4.07;;;9.00;99.90;;;;;;5070363;28;20053;-58
2023/05/17 01:14:05;;;;;;;18.30;4.93;;;9.00;99.90;;;;;;5064208;28;20064;-57
2023/05/17 01:16:43;;;;;;;14.67;4.17;;;9.00;99.90;;;;;;5070791;28;20415;-58
2023/05/17 01:19:49;;;;;;;17.50;5.65;;;9.00;99.90;;;;;;5068061;28;20048;-56
2023/05/17 01:22:27;;;;;;;13.68;4.95;;;8.90;99.90;;;;;;5052534;28;20048;-59
2023/05/17 01:25:34;;;;;;;13.65;3.83;;;8.90;99.90;;;;;;5067623;28;20051;-57
2023/05/17 01:28:05;;;;;;;12.30;4.40;;;8.90;99.90;;;;;;5043205;28;20048;-57
2023/05/17 01:30:33;;;;;;;14.13;4.07;;;8.90;99.90;;;;;;5065606;28;20052;-56
2023/05/17 01:33:03;;;;;;;12.73;4.23;;;8.90;99.90;;;;;;5053651;28;20052;-58
2023/05/17 01:35:31;;;;;;;12.43;4.60;;;8.90;99.90;;;;;;5059714;28;20044;-58
2023/05/17 01:37:58;;;;;;;9.70;4.30;;;8.90;99.90;;;;;;5075367;28;20066;-59
2023/05/17 01:40:27;;;;;;;10.27;3.78;;;8.80;99.90;;;;;;5070389;28;20037;-58
2023/05/17 01:43:22;;;;;;;10.35;4.40;;;8.80;99.90;;;;;;5072490;28;20041;-57
2023/05/17 01:46:04;;;;;;;11.38;4.18;;;8.80;99.90;;;;;;5052739;28;20480;-57
2023/05/17 01:48:39;;;;;;;12.70;5.38;;;8.80;99.90;;;;;;5078742;28;20538;-55
2023/05/17 01:51:17;;;;;;;11.95;4.07;;;8.70;99.90;;;;;;5071363;28;20484;-58
2023/05/17 01:53:56;;;;;;;17.58;5.05;;;8.60;99.90;;;;;;5073402;28;20052;-58
2023/05/17 01:56:32;;;;;;;20.65;3.97;;;8.70;99.90;;;;;;5072564;28;20045;-57
2023/05/17 01:59:04;;;;;;;12.93;4.05;;;8.70;99.90;;;;;;5070638;28;20049;-57
2023/05/17 02:01:32;;;;;;;18.83;4.68;;;8.70;99.90;;;;;;5071690;28;20051;-58
2023/05/17 02:04:01;;;;;;;11.18;3.95;;;8.60;99.90;;;;;;5072567;28;20048;-57
2023/05/17 02:06:31;;;;;;;14.77;5.47;;;8.60;99.90;;;;;;5071629;28;20407;-55
2023/05/17 02:09:01;;;;;;;11.80;4.07;;;8.60;99.90;;;;;;5071692;28;20045;-58
2023/05/17 02:11:29;;;;;;;12.85;4.30;;;8.60;99.90;;;;;;5071613;28;20059;-57
2023/05/17 02:13:57;;;;;;;14.43;5.43;;;8.60;99.90;;;;;;5071233;28;20044;-56
2023/05/17 02:16:25;;;;;;;15.25;4.03;;;8.60;99.90;;;;;;5073069;28;20411;-58
2023/05/17 02:18:53;;;;;;;14.63;4.38;;;8.60;99.90;;;;;;5077871;28;20059;-57
2023/05/17 02:21:21;;;;;;;16.60;4.60;;;8.60;99.90;;;;;;5072000;28;20044;-58
2023/05/17 02:23:49;;;;;;;15.90;4.45;;;8.60;99.90;;;;;;5071447;28;20055;-55
2023/05/17 02:26:18;;;;;;;9.88;4.35;;;8.60;99.90;;;;;;5071979;28;20040;-56
2023/05/17 02:28:46;;;;;;;13.27;5.32;;;8.60;99.90;;;;;;5071184;28;20045;-57
2023/05/17 02:31:14;;;;;;;10.98;5.18;;;8.60;99.90;;;;;;5061739;28;20045;-58
2023/05/17 02:33:42;;;;;;;12.38;3.83;;;8.50;99.90;;;;;;5072296;28;20048;-56
2023/05/17 02:36:10;;;;;;;16.08;4.22;;;8.50;99.90;;;;;;5070118;28;20044;-58
2023/05/17 02:38:38;;;;;;;16.73;4.78;;;8.50;99.90;;;;;;5070609;28;20048;-57
2023/05/17 02:41:05;;;;;;;11.27;4.03;;;8.50;99.90;;;;;;5064030;28;20060;-56
2023/05/17 02:43:33;;;;;;;11.77;4.50;;;8.50;99.90;;;;;;5070495;28;20036;-56
2023/05/17 02:46:07;;;;;;;14.68;5.55;;;;;;;;;;5070524;28;20045;-60
2023/05/17 02:48:34;;;;;;;12.70;4.18;;;8.50;99.90;;;;;;5051035;28;20045;-57
2023/05/17 02:51:03;;;;;;;13.80;3.95;;;8.40;99.90;;;;;;5067599;28;20384;-56
2023/05/17 02:53:31;;;;;;;14.90;3.97;;;8.40;99.90;;;;;;5072049;28;20040;-58
2023/05/17 02:55:59;;;;;;;14.75;4.35;;;8.40;99.90;;;;;;5070513;28;20044;-56
2023/05/17 02:58:27;;;;;;;14.32;4.72;;;8.40;99.90;;;;;;5070334;28;20048;-57
2023/05/17 03:00:56;;;;;;;25.75;4.95;;;8.40;99.90;;;;;;5069065;28;20503;-59
2023/05/17 03:03:23;;;;;;;12.57;4.15;;;8.40;99.90;;;;;;5069275;28;20060;-56
2023/05/17 03:05:51;;;;;;;13.05;4.65;;;8.40;99.90;;;;;;5070069;28;20432;-57
2023/05/17 03:08:21;;;;;;;10.30;3.67;;;8.40;99.90;;;;;;5070717;28;20041;-55
2023/05/17 03:10:50;;;;;;;14.40;5.88;;;8.40;99.90;;;;;;5070071;28;20061;-57
2023/05/17 03:13:18;;;;;;;14.02;4.25;;;8.40;99.90;;;;;;5043244;28;20071;-55
2023/05/17 03:15:46;;;;;;;15.02;4.20;;;8.40;99.90;;;;;;5069759;28;20078;-56
2023/05/17 03:18:14;;;;;;;7.78;3.67;;;8.40;99.90;;;;;;5089138;28;20044;-58
2023/05/17 03:20:43;;;;;;;10.20;3.72;;;8.40;99.90;;;;;;5090454;28;20047;-57
2023/05/17 03:23:10;;;;;;;17.25;4.88;;;8.30;99.90;;;;;;5071788;28;20368;-57
2023/05/17 03:25:49;;;;;;;13.70;4.72;;;8.30;99.90;;;;;;5055387;28;20664;-56
2023/05/17 03:28:17;;;;;;;11.45;4.32;;;8.30;99.90;;;;;;5069612;28;20041;-56
2023/05/17 03:30:45;;;;;;;12.65;4.78;;;8.30;99.90;;;;;;5070341;28;20056;-57
2023/05/17 03:33:15;;;;;;;12.70;4.72;;;8.20;99.90;;;;;;5068394;28;20053;-55
2023/05/17 03:35:45;;;;;;;14.75;4.40;;;8.20;99.90;;;;;;5070274;28;20044;-56
2023/05/17 03:38:14;;;;;;;8.93;4.65;;;8.20;99.90;;;;;;5071388;28;20044;-56
2023/05/17 03:40:42;;;;;;;20.75;5.88;;;8.20;99.90;;;;;;5069689;28;20617;-55
2023/05/17 03:43:10;;;;;;;15.73;5.10;;;8.10;99.90;;;;;;5070535;28;20052;-58
2023/05/17 03:45:38;;;;;;;14.52;5.05;;;8.10;99.90;;;;;;5068729;28;20052;-57
2023/05/17 03:48:06;;;;;;;17.70;4.40;;;8.00;99.90;;;;;;5084119;28;20118;-58
2023/05/17 03:50:35;;;;;;;14.35;4.30;;;8.00;99.90;;;;;;5085631;28;20041;-58
2023/05/17 03:53:03;;;;;;;13.07;4.70;;;8.00;99.90;;;;;;5070661;28;20053;-59
2023/05/17 03:55:31;;;;;;;13.50;3.97;;;8.00;99.90;;;;;;5069387;28;20476;-58
2023/05/17 03:57:59;;;;;;;13.55;5.13;;;7.90;99.90;;;;;;5070147;28;20059;-59
2023/05/17 04:00:27;;;;;;;12.93;4.50;;;7.90;99.90;;;;;;5052686;28;20048;-59
2023/05/17 04:03:01;;;;;;;14.50;4.38;;;7.90;99.90;;;;;;5053592;28;20048;-59
2023/05/17 04:05:29;;;;;;;12.15;4.85;;;7.80;99.90;;;;;;5068543;28;20040;-58
2023/05/17 04:07:57;;;;;;;12.18;5.32;;;7.80;99.90;;;;;;5070230;28;20048;-60
2023/05/17 04:10:25;;;;;;;15.40;4.72;;;7.90;99.90;;;;;;5075334;28;20045;-57
2023/05/17 04:12:53;;;;;;;13.45;4.28;;;7.80;99.90;;;;;;5074198;28;20044;-57
2023/05/17 04:15:21;;;;;;;15.50;4.38;;;7.80;99.90;;;;;;5056673;28;20492;-56
2023/05/17 04:17:50;;;;;;;15.63;5.35;;;7.80;99.90;;;;;;5062586;28;20045;-57
2023/05/17 04:20:18;;;;;;;10.85;4.60;;;7.80;99.90;;;;;;5055105;28;20041;-55
2023/05/17 04:22:46;;;;;;;12.75;4.50;;;7.80;99.90;;;;;;5071500;28;20048;-56
2023/05/17 04:25:14;;;;;;;15.25;5.30;;;7.80;99.90;;;;;;5073669;28;20048;-57
2023/05/17 04:27:42;;;;;;;16.33;5.50;;;7.70;99.90;;;;;;5074068;28;20044;-57
2023/05/17 04:30:11;;;;;;;9.15;4.05;;;7.70;99.90;;;;;;5073666;28;20072;-57
2023/05/17 04:32:39;;;;;;;17.13;5.30;;;7.70;99.90;;;;;;5072781;28;20983;-56
2023/05/17 04:35:08;;;;;;;14.30;5.13;;;7.70;99.90;;;;;;5072639;28;20049;-57
2023/05/17 04:37:38;;;;;;;14.20;4.97;;;7.70;99.90;;;;;;5048696;28;20048;-59
2023/05/17 04:40:16;;;;;;;20.15;4.97;;;7.70;99.90;;;;;;5067273;28;20056;-57
2023/05/17 04:42:46;;;;;;;14.90;4.75;;;7.70;99.90;;;;;;5072708;28;20040;-58
2023/05/17 04:45:15;;;;;;;15.15;4.57;;;7.40;99.90;;;;;;5073100;28;20041;-57
2023/05/17 04:47:42;;;;;;;12.60;4.93;;;7.70;99.90;;;;;;5066449;28;20337;-57
2023/05/17 04:50:11;;;;;;;16.42;5.35;;;7.70;99.90;;;;;;5065884;28;20041;-57
2023/05/17 04:52:40;;;;;;;12.68;5.20;;;7.80;99.90;;;;;;5059287;28;20411;-57
2023/05/17 04:55:09;;;;;;;16.63;5.93;;;7.90;99.90;;;;;;5058557;28;20045;-57
2023/05/17 04:57:39;;;;;;;16.25;6.22;;;8.00;99.90;;;;;;5056528;28;20059;-57
2023/05/17 05:00:10;;;;;;;11.95;5.32;;;8.00;99.90;;;;;;5069879;28;20396;-56
2023/05/17 05:02:42;;;;;;;16.42;5.90;;;8.10;99.90;;;;;;5041940;28;20428;-56
2023/05/17 05:05:11;;;;;;;12.05;5.40;;;8.10;99.90;;;;;;5053710;28;20036;-57
2023/05/17 05:07:41;;;;;;;14.30;4.93;;;7.80;99.90;;;;;;5066136;28;20052;-56
2023/05/17 05:10:10;;;;;;;10.75;4.85;;;8.20;99.90;;;;;;5069825;28;20044;-55
2023/05/17 05:12:38;;;;;;;13.75;5.40;;;8.20;99.90;;;;;;5065007;28;20288;-56
2023/05/17 05:15:07;;;;;;;19.00;5.40;;;8.20;99.90;;;;;;5048842;28;20045;-57
2023/05/17 05:17:38;;;;;;;17.67;6.10;;;8.20;99.90;;;;;;5068290;28;20048;-58
2023/05/17 05:20:07;;;;;;;19.38;5.63;;;8.20;99.90;;;;;;5069667;28;20044;-57
2023/05/17 05:22:35;;;;;;;14.73;6.15;;;8.20;99.90;;;;;;5065198;28;20600;-57
2023/05/17 05:25:04;;;;;;;16.70;5.88;;;8.30;99.90;;;;;;5064810;28;20041;-56
2023/05/17 05:27:34;;;;;;;15.63;5.68;;;8.40;99.90;;;;;;5049214;28;20407;-56
2023/05/17 05:30:02;;;;;;;;;;;8.30;99.90;;;;;;5066553;28;20052;-56
2023/05/17 05:32:31;;;;;;;14.45;5.70;;;8.40;99.90;;;;;;5064927;28;20375;-57
2023/05/17 05:34:59;;;;;;;22.85;6.45;;;8.40;99.90;;;;;;5055730;28;20068;-58
2023/05/17 05:37:27;;;;;;;21.98;6.53;;;8.50;99.90;;;;;;5068478;28;20259;-56
2023/05/17 05:39:58;;;;;;;20.80;5.82;;;8.80;99.90;;;;;;5080105;28;20037;-57
2023/05/17 05:42:27;;;;;;;16.23;5.93;;;8.80;99.90;;;;;;5067394;28;20036;-57
2023/05/17 05:44:55;;;;;;;14.13;6.30;;;9.00;99.90;;;;;;5068694;28;20055;-56
2023/05/17 05:47:26;;;;;;;11.77;6.13;;;9.00;99.90;;;;;;5063313;28;20059;-58
2023/05/17 05:49:54;;;;;;;23.30;6.57;;;9.00;99.90;;;;;;5047394;28;20055;-58
2023/05/17 05:52:22;;;;;;;12.32;5.65;;;9.10;99.90;;;;;;5065341;28;20049;-57
2023/05/17 05:54:51;;;;;;;18.42;6.10;;;9.30;99.90;;;;;;5064252;28;20049;-58
2023/05/17 05:57:19;;;;;;;22.48;6.35;;;9.30;99.90;;;;;;5057516;28;20621;-56
2023/05/17 05:59:47;;;;;;;15.13;5.72;;;9.40;99.90;;;;;;5065157;28;20053;-58
2023/05/17 06:02:16;;;;;;;21.58;6.00;;;9.60;99.90;;;;;;5067608;28;20044;-57
2023/05/17 06:04:45;;;;;;;13.43;5.85;;;9.70;99.90;;;;;;5066040;28;20047;-57
2023/05/17 06:07:13;;;;;;;19.13;6.25;;;9.80;99.90;;;;;;5068192;28;20064;-58
2023/05/17 06:09:42;;;;;;;15.93;5.65;;;10.00;99.90;;;;;;5062721;28;20059;-58
2023/05/17 06:12:10;;;;;;;18.05;7.43;;;10.10;99.90;;;;;;5064296;28;20045;-59
2023/05/17 06:14:38;;;;;;;16.90;5.57;;;10.10;99.90;;;;;;5064338;28;20060;-58
2023/05/17 06:17:06;;;;;;;15.38;5.25;;;10.30;99.90;;;;;;5064845;28;20044;-58
2023/05/17 06:19:34;;;;;;;21.33;6.05;;;10.30;99.90;;;;;;5060284;28;20514;-58
2023/05/17 06:22:03;;;;;;;21.55;5.65;;;10.40;99.90;;;;;;5068684;28;20541;-57
2023/05/17 06:24:31;;;;;;;21.73;6.10;;;10.40;99.90;;;;;;5069352;28;20051;-58
2023/05/17 06:27:00;;;;;;;21.75;5.90;;;10.40;99.90;;;;;;5068767;28;20052;-60
2023/05/17 06:29:28;;;;;;;15.20;6.00;;;10.40;99.90;;;;;;5066855;28;20582;-57
2023/05/17 06:31:58;;;;;;;17.85;5.60;;;10.50;99.90;;;;;;5069349;28;20044;-60
2023/05/17 06:34:26;;;;;;;;;;;10.40;99.90;;;;;;5067410;28;20052;-61
2023/05/17 06:36:54;;;;;;;19.20;5.38;;;10.60;99.90;;;;;;5065770;28;20509;-60
2023/05/17 06:39:24;;;;;;;15.88;6.03;;;10.60;99.90;;;;;;5064166;28;20040;-59
2023/05/17 06:41:52;;;;;;;18.50;6.22;;;10.60;99.90;;;;;;5060356;28;20060;-57
2023/05/17 06:44:20;;;;;;;19.88;7.15;;;10.70;99.90;;;;;;5065034;28;20056;-58
2023/05/17 06:46:47;;;;;;;18.15;5.78;;;10.80;99.90;;;;;;5060593;28;20055;-57
2023/05/17 06:49:17;;;;;;;12.30;5.70;;;10.90;99.90;;;;;;5059512;28;20057;-57
2023/05/17 06:51:47;;;;;;;14.52;5.78;;;11.00;99.90;;;;;;5039533;28;20055;-57
2023/05/17 06:54:15;;;;;;;20.23;6.07;;;11.00;99.90;;;;;;5062033;28;20056;-58
2023/05/17 06:56:43;;;;;;;14.43;6.40;;;11.10;99.90;;;;;;5062175;28;20047;-57
2023/05/17 06:59:11;;;;;;;18.48;5.65;;;11.20;99.90;;;;;;5062836;28;20041;-58
2023/05/17 07:01:39;;;;;;;12.23;4.97;;;11.20;99.90;;;;;;5064570;28;20041;-58
2023/05/17 07:04:07;;;;;;;13.20;5.55;;;11.20;99.90;;;;;;5062546;28;20059;-57
2023/05/17 07:06:35;;;;;;;14.85;4.88;;;11.20;99.90;;;;;;5059821;28;20419;-57
2023/05/17 07:09:03;;;;;;;12.68;5.38;;;11.30;99.90;;;;;;5057072;28;20055;-57
2023/05/17 07:11:31;;;;;;;11.75;4.65;;;11.30;99.90;;;;;;5064055;28;20051;-58
2023/05/17 07:13:59;;;;;;;10.80;4.05;;;11.30;99.90;;;;;;5058916;28;20044;-57
2023/05/17 07:16:27;;;;;;;17.75;5.13;;;11.30;99.90;;;;;;5046873;28;20056;-59
2023/05/17 07:18:58;;;;;;;12.05;3.90;;;11.40;99.90;;;;;;5055835;28;20045;-58
2023/05/17 07:21:26;;;;;;;9.05;3.92;;;11.60;99.90;;;;;;5063215;28;20044;-59
2023/05/17 07:23:54;;;;;;;15.73;4.53;;;11.60;99.90;;;;;;5063175;28;20087;-58
2023/05/17 07:26:23;;;;;;;11.05;4.35;;;11.90;99.90;;;;;;5062752;28;20081;-57
2023/05/17 07:28:50;;;;;;;18.42;4.32;;;11.90;99.90;;;;;;5078642;28;20048;-57
2023/05/17 07:31:18;;;;;;;16.15;4.43;;;12.00;99.90;;;;;;5069979;28;20053;-56
2023/05/17 07:33:46;;;;;;;12.23;4.13;;;12.20;99.90;;;;;;5056211;28;20060;-56
2023/05/17 07:36:14;;;;;;;11.75;3.83;;;12.30;99.90;;;;;;5050647;28;20063;-58
2023/05/17 07:38:42;;;;;;;10.43;3.28;;;12.40;99.90;;;;;;5062769;28;20261;-56
2023/05/17 07:41:12;;;;;;;7.72;2.90;;;12.50;99.90;;;;;;5062650;28;20048;-58
2023/05/17 07:43:40;;;;;;;;;;;12.60;99.90;;;;;;5061304;28;20045;-58
2023/05/17 07:46:08;;;;;;;17.92;3.30;;;12.70;99.90;;;;;;5044629;28;19925;-59
2023/05/17 07:48:35;;;;;;;10.63;3.10;;;12.80;99.90;;;;;;5059827;28;20047;-58
2023/05/17 07:51:04;;;;;;;7.68;2.72;;;12.90;99.90;;;;;;5062238;28;20049;-57
2023/05/17 07:53:32;;;;;;;14.02;2.97;;;13.00;99.90;;;;;;5063373;28;20060;-57
2023/05/17 07:56:03;;;;;;;11.82;3.08;;;13.10;99.90;;;;;;5063184;28;20045;-59
2023/05/17 07:58:31;;;;;;;14.80;3.17;;;13.20;99.90;;;;;;5065866;28;20048;-58
2023/05/17 08:00:59;;;;;;;7.70;2.88;;;13.40;99.90;;;;;;5062126;28;20067;-58
2023/05/17 08:03:27;;;;;;;13.25;2.75;;;13.40;99.90;;;;;;5062228;28;21658;-58
2023/05/17 08:05:56;;;;;;;11.13;2.47;;;13.70;99.90;;;;;;5064326;28;20048;-60
2023/05/17 08:08:24;;;;;;;7.40;2.75;;;13.70;99.90;;;;;;5062063;28;20048;-59
2023/05/17 08:10:52;;;;;;;10.23;2.67;;;13.80;99.90;;;;;;5062542;28;20044;-61
2023/05/17 08:13:22;;;;;;;13.85;2.60;;;13.90;99.90;;;;;;5062342;28;20048;-58
2023/05/17 08:15:50;;;;;;;13.73;2.67;;;13.90;99.90;;;;;;5063464;28;20044;-61
2023/05/17 08:18:29;;;;;;;7.03;2.78;;;14.00;99.90;;;;;;5061725;28;20064;-58
2023/05/17 08:20:57;;;;;;;7.55;2.25;;;14.00;99.90;;;;;;5057967;28;20067;-60
2023/05/17 08:23:26;;;;;;;10.10;2.85;;;14.10;99.90;;;;;;5062898;28;20415;-59
2023/05/17 08:25:54;;;;;;;12.68;2.67;;;14.10;99.90;;;;;;5061592;28;20503;-59
2023/05/17 08:28:22;;;;;;;10.57;2.40;;;14.30;99.90;;;;;;5063929;28;20040;-59
2023/05/17 08:30:50;;;;;;;8.80;3.08;;;14.30;99.90;;;;;;5052870;28;20036;-61
2023/05/17 08:33:21;;;;;;;13.55;2.47;;;14.50;99.90;;;;;;5064475;28;20491;-60
2023/05/17 08:35:51;;;;;;;7.32;2.78;;;14.60;99.90;;;;;;5059641;28;20055;-57
2023/05/17 08:38:22;;;;;;;7.18;2.33;;;14.70;99.90;;;;;;5055087;28;20044;-56
2023/05/17 08:40:58;;;;;;;13.63;2.63;;;14.80;99.90;;;;;;5062124;28;20044;-56
2023/05/17 08:43:27;;;;;;;9.27;2.58;;;14.80;99.90;;;;;;5060948;28;20028;-59
2023/05/17 08:45:56;;;;;;;7.75;2.85;;;;;;;;;;5048700;28;20518;-58
2023/05/17 08:48:29;;;;;;;8.73;2.70;;;14.70;99.90;;;;;;5070079;28;20396;-58
2023/05/17 08:51:00;;;;;;;12.05;2.80;;;14.80;99.90;;;;;;5056785;28;20056;-58
2023/05/17 08:53:28;;;;;;;12.00;3.35;;;14.80;99.90;;;;;;5062558;28;20558;-57
2023/05/17 08:56:01;;;;;;;8.35;2.38;;;14.80;99.90;;;;;;5065776;28;20495;-63
2023/05/17 08:58:34;;;;;;;8.85;3.03;;;14.80;99.90;;;;;;5066826;28;20052;-62
2023/05/17 09:01:22;;;;;;;14.40;2.53;;;15.00;99.90;;;;;;5067562;28;20041;-61
2023/05/17 09:03:56;;;;;;;8.65;2.80;;;15.10;99.90;;;;;;5066099;28;20052;-60
2023/05/17 09:06:24;;;;;;;7.28;2.30;;;15.20;99.90;;;;;;5067473;28;20051;-60
2023/05/17 09:08:57;;;;;;;6.68;2.33;;;15.30;99.90;;;;;;5081642;28;20040;-58
2023/05/17 09:11:31;;;;;;;9.85;2.45;;;15.40;99.90;;;;;;5066586;28;20063;-62
2023/05/17 09:14:05;;;;;;;6.93;2.45;;;15.50;99.90;;;;;;5065328;28;20052;-62
2023/05/17 09:16:35;;;;;;;7.53;3.03;;;15.70;99.90;;;;;;5069581;28;20048;-58
2023/05/17 09:19:04;;;;;;;9.20;2.67;;;15.80;99.90;;;;;;5066792;28;20036;-58
2023/05/17 09:21:33;;;;;;;12.82;2.95;;;15.80;99.90;;;;;;5047194;28;20056;-56
2023/05/17 09:24:01;;;;;;;5.50;3.17;;;15.80;99.90;;;;;;5074886;28;20040;-57
2023/05/17 09:26:43;;;;;;;7.80;3.08;;;15.80;99.90;;;;;;5087237;28;20051;-59
2023/05/17 09:29:13;;;;;;;10.90;2.80;;;15.90;99.90;;;;;;5069328;28;20048;-58
2023/05/17 09:31:43;;;;;;;11.45;3.35;;;16.00;99.90;;;;;;5065390;28;20044;-59
2023/05/17 09:34:12;;;;;;;8.38;2.65;;;16.10;99.90;;;;;;5069137;28;20052;-58
2023/05/17 09:36:43;;;;;;;7.97;2.50;;;16.00;99.90;;;;;;5067024;28;20055;-59
2023/05/17 09:39:13;;;;;;;7.60;2.70;;;16.10;99.90;;;;;;5066488;28;20040;-59
2023/05/17 09:41:46;;;;;;;10.93;2.65;;;16.10;99.90;;;;;;5065570;28;20396;-56
2023/05/17 09:44:19;;;;;;;9.27;3.05;;;16.10;99.90;;;;;;5065382;28;20054;-57
2023/05/17 09:46:49;;;;;;;4.00;2.17;;;16.10;99.90;;;;;;5057031;28;20404;-58
2023/05/17 09:49:17;;;;;;;9.25;2.38;;;16.10;99.90;;;;;;5073436;28;20417;-58
2023/05/17 09:51:49;;;;;;;6.72;2.22;;;16.20;99.90;;;;;;5069006;28;20063;-59
2023/05/17 09:54:18;;;;;;;18.83;2.70;;;;;;;;;;5080917;28;20047;-58
2023/05/17 09:56:53;;;;;;;13.18;2.42;;;16.20;99.90;;;;;;5089969;28;20063;-59
2023/05/17 09:59:23;;;;;;;11.05;2.38;;;16.30;99.90;;;;;;5069812;28;20048;-59
2023/05/17 10:01:53;;;;;;;5.50;2.70;;;16.40;99.90;;;;;;5067208;28;20044;-59
2023/05/17 10:04:24;;;;;;;17.33;4.13;;;16.40;99.90;;;;;;5061604;28;20047;-60
2023/05/17 10:06:53;;;;;;;8.20;3.30;;;16.60;99.90;;;;;;5049297;28;20044;-59
2023/05/17 10:09:22;;;;;;;14.63;3.22;;;;;;;;;;5066783;28;20805;-58
2023/05/17 10:11:51;;;;;;;10.05;2.63;;;16.60;99.90;;;;;;5067675;28;20111;-57
2023/05/17 10:14:27;;;;;;;10.15;2.47;;;16.50;99.90;;;;;;5080846;28;20040;-60
2023/05/17 10:16:56;;;;;;;14.68;3.53;;;16.40;99.90;;;;;;5084416;28;20138;-57
2023/05/17 10:19:25;;;;;;;9.40;2.10;;;16.30;99.90;;;;;;5065064;28;20049;-58
2023/05/17 10:21:56;;;;;;;7.25;2.38;;;16.40;99.90;;;;;;5056608;28;20036;-59
2023/05/17 10:24:38;;;;;;;7.57;2.20;;;16.50;99.90;;;;;;5068800;28;20534;-58
2023/05/17 10:27:07;;;;;;;15.27;3.20;;;16.50;99.90;;;;;;5065529;28;20056;-59
2023/05/17 10:29:38;;;;;;;8.52;2.75;;;16.60;99.90;;;;;;5068979;28;20045;-59
2023/05/17 10:32:06;;;;;;;9.07;2.20;;;16.60;99.90;;;;;;5068851;28;20059;-57
2023/05/17 10:34:36;;;;;;;13.55;3.15;;;16.60;99.90;;;;;;5065514;28;20059;-58
2023/05/17 10:37:05;;;;;;;10.88;2.28;;;16.60;99.90;;;;;;5057407;28;20049;-59
2023/05/17 10:39:37;;;;;;;10.90;2.67;;;16.50;99.90;;;;;;5067991;28;20040;-58
2023/05/17 10:42:10;;;;;;;7.82;2.15;;;16.70;99.90;;;;;;5069085;28;20053;-59
2023/05/17 10:44:42;;;;;;;6.65;2.45;;;16.90;99.90;;;;;;5065951;28;20071;-58
2023/05/17 10:47:10;;;;;;;5.68;2.05;;;17.20;99.90;;;;;;5050026;28;20040;-59
2023/05/17 10:49:40;;;;;;;9.85;2.75;;;17.40;99.90;;;;;;5049037;28;20049;-61
2023/05/17 10:52:14;;;;;;;13.35;3.22;;;17.30;99.90;;;;;;5049021;28;20069;-62
2023/05/17 10:54:43;;;;;;;5.82;2.20;;;17.70;99.90;;;;;;5076981;28;20055;-61
2023/05/17 10:57:31;;;;;;;9.90;2.78;;;18.00;99.90;;;;;;5088925;28;20299;-62
2023/05/17 11:00:19;;;;;;;8.18;2.47;;;18.00;99.90;;;;;;5066388;28;20045;-59
2023/05/17 11:02:47;;;;;;;5.85;2.50;;;18.20;99.90;;;;;;5067519;28;20044;-60
2023/05/17 11:05:28;;;;;;;9.55;2.50;;;18.30;99.90;;;;;;5062380;28;20047;-58
2023/05/17 11:08:16;;;;;;;7.35;3.08;;;18.30;99.90;;;;;;5054896;28;20876;-62
2023/05/17 11:11:19;;;;;;;8.68;2.22;;;18.30;99.90;;;;;;5067238;28;20048;-63
2023/05/17 11:14:10;;;;;;;4.40;1.60;;;17.70;99.90;;;;;;5051426;28;20052;-60
2023/05/17 11:16:38;;;;;;;6.00;1.60;;;17.30;99.90;;;;;;5077426;28;20055;-62
2023/05/17 11:19:09;;;;;;;6.53;2.05;;;17.00;99.90;;;;;;5070083;28;20495;-62
2023/05/17 11:21:48;;;;;;;5.72;2.15;;;16.80;99.90;;;;;;5066715;28;20547;-62
2023/05/17 11:24:28;;;;;;;6.63;2.40;;;16.70;99.90;;;;;;5068678;28;20052;-60
2023/05/17 11:26:56;;;;;;;;;;;16.60;99.90;;;;;;5088636;28;20056;-59
2023/05/17 11:29:29;;;;;;;7.35;1.85;;;16.60;99.90;;;;;;5066829;28;20418;-61
2023/05/17 11:31:57;;;;;;;5.47;2.05;;;16.60;99.90;;;;;;5067950;28;20517;-62
2023/05/17 11:34:26;;;;;;;5.82;2.08;;;16.60;99.90;;;;;;5079427;28;20055;-63
2023/05/17 11:36:55;;;;;;;7.22;1.80;;;16.60;99.90;;;;;;5050614;28;20056;-62
2023/05/17 11:39:25;;;;;;;7.25;2.28;;;16.60;99.90;;;;;;5064709;28;20442;-61
2023/05/17 11:41:56;;;;;;;11.27;3.13;;;16.50;99.90;;;;;;5068069;28;20724;-60
2023/05/17 11:44:28;;;;;;;5.55;2.00;;;16.50;99.90;;;;;;5079354;28;20368;-60
2023/05/17 11:47:08;;;;;;;6.80;1.83;;;16.50;99.90;;;;;;5079132;28;20053;-59
2023/05/17 11:49:38;;;;;;;9.10;3.05;;;16.60;99.90;;;;;;5068064;28;20518;-59
2023/05/17 11:52:06;;;;;;;4.63;1.98;;;16.70;99.90;;;;;;5049483;28;20439;-61
2023/05/17 11:54:37;;;;;;;4.78;2.53;;;16.90;99.90;;;;;;5073252;28;20051;-60
2023/05/17 11:57:05;;;;;;;8.23;2.47;;;16.90;99.90;;;;;;5067660;28;20286;-60
2023/05/17 11:59:41;;;;;;;5.82;2.30;;;16.90;99.90;;;;;;5064639;28;20048;-59
2023/05/17 12:02:24;;;;;;;6.68;2.15;;;17.10;99.90;;;;;;5067671;28;20044;-60
2023/05/17 12:04:52;;;;;;;9.15;2.90;;;17.10;99.90;;;;;;5081494;28;20047;-59
2023/05/17 12:07:20;;;;;;;8.15;2.30;;;17.20;99.90;;;;;;5065289;28;20052;-62
2023/05/17 12:09:49;;;;;;;4.35;2.28;;;17.50;99.90;;;;;;5066599;28;20040;-59
2023/05/17 12:12:17;;;;;;;4.63;1.80;;;17.90;99.90;;;;;;5062877;28;20044;-58
2023/05/17 12:14:49;;;;;;;5.50;2.08;;;18.80;99.90;;;;;;5081878;28;20079;-60
2023/05/17 12:17:23;;;;;;;;;;;18.80;99.90;;;;;;5087329;28;20059;-60
2023/05/17 12:19:53;;;;;;;8.10;2.45;;;18.90;99.90;;;;;;5067672;28;19928;-61
2023/05/17 12:22:21;;;;;;;9.73;2.10;;;18.70;99.90;;;;;;5048770;28;20041;-59
2023/05/17 12:24:49;;;;;;;7.05;2.13;;;18.50;99.90;;;;;;5061911;28;20041;-60
2023/05/17 12:27:25;;;;;;;5.60;2.25;;;18.20;99.90;;;;;;5067383;28;20055;-59
2023/05/17 12:29:53;;;;;;;3.28;1.83;;;;;;;;;;5069746;28;20059;-59
2023/05/17 12:32:24;;;;;;;11.38;2.60;;;17.60;99.90;;;;;;5069311;28;20076;-63
2023/05/17 12:34:54;;;;;;;11.90;2.92;;;17.40;99.90;;;;;;5085064;28;20079;-60
2023/05/17 12:37:22;;;;;;;8.57;3.00;;;17.10;99.90;;;;;;5059892;28;20049;-61
2023/05/17 12:39:54;;;;;;;10.32;2.78;;;17.00;99.90;;;;;;5071580;28;20056;-61
2023/05/17 12:42:22;;;;;;;6.53;2.70;;;16.90;99.90;;;;;;5066538;28;20059;-61
2023/05/17 12:44:50;;;;;;;10.18;3.03;;;16.80;99.90;;;;;;5071817;28;20821;-62
2023/05/17 12:47:18;;;;;;;7.55;2.75;;;16.70;99.90;;;;;;5068514;28;20749;-58
2023/05/17 12:49:57;;;;;;;7.55;2.60;;;16.80;99.90;;;;;;5067797;28;20063;-59
2023/05/17 12:52:25;;;;;;;13.35;3.00;;;16.80;99.90;;;;;;5050854;28;20052;-59
2023/05/17 12:54:53;;;;;;;14.80;3.25;;;16.90;99.90;;;;;;5061676;28;20041;-59
2023/05/17 12:57:24;;;;;;;9.05;2.78;;;16.90;99.90;;;;;;5067637;28;20048;-58
2023/05/17 12:59:52;;;;;;;8.45;3.17;;;16.90;99.90;;;;;;5067564;28;20354;-59
2023/05/17 13:02:22;;;;;;;9.80;2.80;;;16.80;99.90;;;;;;5066327;28;20055;-58
2023/05/17 13:04:51;;;;;;;11.40;3.85;;;16.80;99.90;;;;;;5052247;28;20302;-58